createdAt,value
2022-11-06T00:00:17.745Z,100.00
2022-11-06T00:03:15.423Z,100.00
2022-11-06T00:06:32.980Z,98.27
2022-11-06T00:09:30.250Z,98.51
2022-11-06T00:12:27.240Z,98.12
2022-11-06T00:15:23.927Z,99.18
2022-11-06T00:18:20.824Z,98.17
2022-11-06T00:21:24.226Z,96.97
2022-11-06T00:24:21.117Z,96.27
2022-11-06T00:27:18.367Z,98.51
2022-11-06T00:30:14.944Z,97.33
2022-11-06T00:33:12.043Z,97.92
2022-11-06T00:36:14.252Z,97.74
2022-11-06T00:39:11.468Z,97.67
2022-11-06T00:42:09.322Z,98.50
2022-11-06T00:45:06.555Z,98.05
2022-11-06T00:48:04.374Z,98.39
2022-11-06T00:51:05.321Z,97.51
2022-11-06T00:54:04.262Z,98.23
2022-11-06T00:57:00.832Z,98.58
2022-11-06T00:59:58.381Z,97.40
2022-11-06T01:02:56.174Z,97.88
2022-11-06T01:05:52.792Z,97.76
2022-11-06T01:08:50.424Z,96.66
2022-11-06T01:15:06.574Z,96.14
2022-11-06T01:18:04.136Z,94.56
2022-11-06T01:21:04.662Z,93.92
2022-11-06T01:24:05.037Z,95.28
2022-11-06T01:27:25.366Z,94.02
2022-11-06T01:30:19.339Z,94.47
2022-11-06T01:33:16.283Z,95.81
2022-11-06T01:36:15.457Z,94.19
2022-11-06T01:39:13.470Z,94.64
2022-11-06T01:42:14.345Z,94.63
2022-11-06T01:45:32.106Z,95.53
2022-11-06T01:48:29.171Z,95.66
2022-11-06T01:51:27.249Z,95.68
2022-11-06T01:54:25.579Z,94.52
2022-11-06T01:57:22.988Z,94.03
2022-11-06T02:00:20.299Z,93.66
2022-11-06T02:03:16.979Z,95.41
2022-11-06T02:06:14.405Z,97.12
2022-11-06T02:09:14.102Z,96.46
2022-11-06T02:12:13.900Z,97.25
2022-11-06T02:15:26.609Z,95.92
2022-11-06T02:18:43.463Z,95.58
2022-11-06T02:22:06.281Z,94.61
2022-11-06T02:25:21.326Z,94.34
2022-11-06T02:28:30.326Z,94.59
2022-11-06T02:31:28.288Z,94.55
2022-11-06T02:34:24.908Z,94.36
2022-11-06T02:37:26.786Z,93.31
2022-11-06T02:40:25.021Z,92.16
2022-11-06T02:43:24.161Z,94.59
2022-11-06T02:46:32.432Z,94.03
2022-11-06T02:49:56.654Z,94.99
2022-11-06T02:53:05.272Z,93.64
2022-11-06T02:56:07.428Z,92.91
2022-11-06T02:59:21.877Z,91.91
2022-11-06T03:02:22.533Z,93.17
2022-11-06T03:05:38.829Z,92.81
2022-11-06T03:08:39.668Z,92.78
2022-11-06T03:11:39.212Z,93.21
2022-11-06T03:14:39.978Z,93.40
2022-11-06T03:17:51.773Z,93.74
2022-11-06T03:21:02.684Z,96.00
2022-11-06T03:24:08.523Z,94.48
2022-11-06T03:27:09.603Z,93.33
2022-11-06T03:30:15.235Z,92.63
2022-11-06T03:33:41.946Z,93.17
2022-11-06T03:36:42.075Z,92.94
2022-11-06T03:39:41.901Z,92.19
2022-11-06T03:42:38.973Z,92.67
2022-11-06T03:45:36.113Z,93.54
2022-11-06T03:48:35.810Z,94.10
2022-11-06T03:51:53.731Z,95.40
2022-11-06T03:54:57.819Z,95.93
2022-11-06T03:58:02.533Z,93.10
2022-11-06T04:00:59.751Z,93.42
2022-11-06T04:04:25.677Z,94.07
2022-11-06T04:07:25.582Z,94.22
2022-11-06T04:10:40.625Z,93.28
2022-11-06T04:13:56.830Z,94.84
2022-11-06T04:16:55.393Z,95.18
2022-11-06T04:19:54.667Z,94.54
2022-11-06T04:23:09.414Z,93.36
2022-11-06T04:26:29.579Z,92.24
2022-11-06T04:29:43.593Z,92.30
2022-11-06T04:33:00.386Z,92.87
2022-11-06T04:36:18.565Z,92.56
2022-11-06T04:39:37.222Z,93.15
2022-11-06T04:43:03.117Z,93.66
2022-11-06T04:46:00.575Z,93.81
2022-11-06T04:48:57.375Z,93.21
2022-11-06T04:51:54.234Z,93.83
2022-11-06T04:54:51.079Z,94.18
2022-11-06T04:57:48.101Z,94.34
2022-11-06T05:00:46.648Z,93.45
2022-11-06T05:03:44.570Z,95.84
2022-11-06T05:06:41.005Z,95.57
2022-11-06T05:09:38.478Z,96.05
2022-11-06T05:12:35.582Z,95.53
2022-11-06T05:15:32.173Z,96.25
2022-11-06T05:18:28.935Z,95.88
2022-11-06T05:21:44.766Z,94.53
2022-11-06T05:24:42.260Z,94.98
2022-11-06T05:27:39.280Z,95.39
2022-11-06T05:30:36.905Z,94.83
2022-11-06T05:33:34.148Z,94.67
2022-11-06T05:36:31.189Z,94.58
2022-11-06T05:39:28.221Z,95.67
2022-11-06T05:42:25.310Z,96.54
2022-11-06T05:45:22.329Z,96.56
2022-11-06T05:48:19.339Z,97.45
2022-11-06T05:51:15.985Z,97.22
2022-11-06T05:54:13.419Z,97.51
2022-11-06T05:57:10.094Z,96.42
2022-11-06T06:00:07.895Z,96.99
2022-11-06T06:03:09.869Z,98.17
2022-11-06T06:06:07.288Z,97.25
2022-11-06T06:09:04.286Z,97.15
2022-11-06T06:12:01.787Z,97.96
2022-11-06T06:14:59.112Z,97.31
2022-11-06T06:17:57.888Z,97.90
2022-11-06T06:20:55.083Z,98.41
2022-11-06T06:23:51.999Z,97.12
2022-11-06T06:26:49.741Z,97.25
2022-11-06T06:29:47.246Z,97.45
2022-11-06T06:32:44.243Z,98.28
2022-11-06T06:35:41.517Z,98.12
2022-11-06T06:38:38.496Z,97.34
2022-11-06T06:41:35.546Z,96.41
2022-11-06T06:44:32.461Z,97.04
2022-11-06T06:47:29.622Z,95.19
2022-11-06T06:50:26.547Z,97.05
2022-11-06T06:53:23.371Z,96.89
2022-11-06T06:56:20.459Z,95.39
2022-11-06T06:59:17.630Z,95.30
2022-11-06T07:02:14.769Z,97.17
2022-11-06T07:05:12.317Z,98.07
2022-11-06T07:08:09.298Z,98.15
2022-11-06T07:11:07.971Z,97.09
2022-11-06T07:14:05.127Z,96.35
2022-11-06T07:17:02.513Z,96.70
2022-11-06T07:19:59.403Z,97.08
2022-11-06T07:22:56.525Z,96.50
2022-11-06T07:25:54.217Z,95.96
2022-11-06T07:28:51.480Z,96.77
2022-11-06T07:31:48.348Z,96.59
2022-11-06T07:34:45.388Z,95.72
2022-11-06T07:37:42.591Z,96.36
2022-11-06T07:40:39.388Z,97.82
2022-11-06T07:43:36.399Z,96.12
2022-11-06T07:46:33.581Z,94.22
2022-11-06T07:49:30.662Z,93.85
2022-11-06T07:52:27.703Z,93.40
2022-11-06T07:55:24.579Z,94.42
2022-11-06T07:58:22.027Z,94.53
2022-11-06T08:01:19.693Z,95.37
2022-11-06T08:04:16.576Z,95.54
2022-11-06T08:07:13.642Z,95.96
2022-11-06T08:10:10.728Z,95.52
2022-11-06T08:13:07.480Z,96.14
2022-11-06T08:16:11.263Z,95.78
2022-11-06T08:19:08.656Z,95.12
2022-11-06T08:22:05.489Z,94.76
2022-11-06T08:25:02.386Z,96.58
2022-11-06T08:28:00.155Z,95.04
2022-11-06T08:30:57.195Z,94.56
2022-11-06T08:33:54.509Z,95.41
2022-11-06T08:36:52.378Z,95.21
2022-11-06T08:39:49.617Z,95.28
2022-11-06T08:42:46.795Z,94.35
2022-11-06T08:45:43.697Z,93.89
2022-11-06T08:48:40.293Z,91.22
2022-11-06T08:51:37.198Z,89.94
2022-11-06T08:54:34.492Z,91.20
2022-11-06T08:57:31.389Z,92.59
2022-11-06T09:00:28.569Z,92.96
2022-11-06T09:03:25.449Z,92.82
2022-11-06T09:06:22.200Z,92.92
2022-11-06T09:09:19.931Z,91.13
2022-11-06T09:12:17.501Z,90.14
2022-11-06T09:15:14.495Z,87.79
2022-11-06T09:18:11.794Z,85.81
2022-11-06T09:21:08.928Z,86.89
2022-11-06T09:24:06.641Z,86.10
2022-11-06T09:27:03.788Z,85.14
2022-11-06T09:30:00.408Z,83.84
2022-11-06T09:32:59.374Z,83.06
2022-11-06T09:35:56.257Z,83.92
2022-11-06T09:38:53.754Z,84.89
2022-11-06T09:41:56.530Z,86.52
2022-11-06T09:45:13.096Z,86.90
2022-11-06T09:48:10.656Z,85.56
2022-11-06T09:51:25.962Z,86.90
2022-11-06T09:54:24.640Z,86.93
2022-11-06T09:57:35.738Z,86.70
2022-11-06T10:00:32.588Z,85.27
2022-11-06T10:03:41.041Z,83.66
2022-11-06T10:06:38.301Z,82.64
2022-11-06T10:09:35.869Z,82.10
2022-11-06T10:12:54.240Z,82.63
2022-11-06T10:16:08.802Z,84.27
2022-11-06T10:19:28.473Z,84.80
2022-11-06T10:22:28.032Z,86.96
2022-11-06T10:25:46.932Z,87.68
2022-11-06T10:29:02.461Z,85.67
2022-11-06T10:32:15.389Z,85.36
2022-11-06T10:35:23.570Z,86.78
2022-11-06T10:38:39.349Z,84.98
2022-11-06T10:41:37.995Z,83.35
2022-11-06T10:44:39.503Z,82.54
2022-11-06T10:47:44.740Z,83.34
2022-11-06T10:50:49.157Z,84.51
2022-11-06T10:53:56.385Z,82.82
2022-11-06T10:57:41.674Z,82.92
2022-11-06T11:00:39.025Z,83.41
2022-11-06T11:03:40.178Z,84.08
2022-11-06T11:06:42.352Z,82.90
2022-11-06T11:09:40.625Z,84.06
2022-11-06T11:12:37.596Z,83.03
2022-11-06T11:15:45.958Z,81.64
2022-11-06T11:18:44.061Z,83.42
2022-11-06T11:21:52.791Z,83.54
2022-11-06T11:25:03.629Z,83.27
2022-11-06T11:28:04.655Z,84.08
2022-11-06T11:31:16.287Z,83.32
2022-11-06T11:34:19.337Z,84.46
2022-11-06T11:37:33.328Z,84.05
2022-11-06T11:40:37.768Z,84.29
2022-11-06T11:43:34.705Z,83.46
2022-11-06T11:46:31.773Z,82.66
2022-11-06T11:49:33.325Z,82.09
2022-11-06T11:52:30.678Z,80.46
2022-11-06T11:55:28.495Z,78.17
2022-11-06T11:58:28.893Z,70.34
2022-11-06T12:01:39.845Z,72.04
2022-11-06T12:04:39.357Z,72.90
2022-11-06T12:07:39.802Z,71.18
2022-11-06T12:10:44.128Z,73.09
2022-11-06T12:13:41.361Z,73.61
2022-11-06T12:16:38.329Z,74.89
2022-11-06T12:19:36.313Z,76.24
2022-11-06T12:22:35.586Z,77.43
2022-11-06T12:25:36.320Z,77.48
2022-11-06T12:28:35.200Z,79.26
2022-11-06T12:31:57.185Z,80.62
2022-11-06T12:35:15.734Z,81.28
2022-11-06T12:38:24.835Z,82.09
2022-11-06T12:41:25.201Z,81.55
2022-11-06T12:44:22.448Z,82.78
2022-11-06T12:47:26.276Z,82.93
2022-11-06T12:50:41.611Z,82.53
2022-11-06T12:54:23.223Z,82.75
2022-11-06T12:57:35.837Z,81.77
2022-11-06T13:01:13.068Z,82.64
2022-11-06T13:04:25.617Z,82.75
2022-11-06T13:07:57.053Z,82.74
2022-11-06T13:11:09.593Z,82.82
2022-11-06T13:14:15.074Z,83.54
2022-11-06T13:17:20.675Z,84.57
2022-11-06T13:20:29.314Z,83.78
2022-11-06T13:23:33.164Z,83.06
2022-11-06T13:26:52.551Z,82.73
2022-11-06T13:29:49.331Z,83.20
2022-11-06T13:32:54.064Z,83.52
2022-11-06T13:35:51.705Z,82.73
2022-11-06T13:38:58.427Z,82.57
2022-11-06T13:41:55.778Z,83.99
2022-11-06T13:44:53.384Z,83.50
2022-11-06T13:48:02.558Z,83.76
2022-11-06T13:51:14.300Z,83.10
2022-11-06T13:54:18.084Z,82.83
2022-11-06T13:57:37.517Z,82.13
2022-11-06T14:00:50.238Z,81.31
2022-11-06T14:04:08.397Z,81.91
2022-11-06T14:07:05.465Z,82.84
2022-11-06T14:10:02.355Z,82.45
2022-11-06T14:13:00.428Z,83.69
2022-11-06T14:16:23.665Z,83.02
2022-11-06T14:19:27.121Z,83.89
2022-11-06T14:22:28.843Z,81.82
2022-11-06T14:25:28.653Z,80.80
2022-11-06T14:28:33.887Z,79.98
2022-11-06T14:32:02.293Z,77.64
2022-11-06T14:35:28.275Z,77.38
2022-11-06T14:38:35.434Z,76.73
2022-11-06T14:41:35.945Z,77.08
2022-11-06T14:44:34.836Z,77.55
2022-11-06T14:47:39.342Z,76.79
2022-11-06T14:50:39.284Z,77.33
2022-11-06T14:53:50.304Z,76.81
2022-11-06T14:56:52.374Z,76.93
2022-11-06T14:59:49.899Z,76.08
2022-11-06T15:02:47.414Z,76.34
2022-11-06T15:05:52.211Z,77.41
2022-11-06T15:08:51.842Z,76.99
2022-11-06T15:11:56.390Z,77.38
2022-11-06T15:14:54.228Z,77.52
2022-11-06T15:17:51.955Z,78.15
2022-11-06T15:20:56.611Z,78.33
2022-11-06T15:23:55.612Z,76.95
2022-11-06T15:26:54.610Z,77.25
2022-11-06T15:29:52.686Z,76.65
2022-11-06T15:32:49.691Z,77.05
2022-11-06T15:35:46.784Z,76.85
2022-11-06T15:38:44.154Z,76.86
2022-11-06T15:41:41.885Z,77.17
2022-11-06T15:44:40.361Z,75.47
2022-11-06T15:47:37.758Z,75.57
2022-11-06T15:50:35.696Z,75.45
2022-11-06T15:53:36.962Z,75.14
2022-11-06T15:56:36.961Z,74.27
2022-11-06T15:59:33.811Z,73.62
2022-11-06T16:02:30.838Z,75.35
2022-11-06T16:05:29.037Z,75.35
2022-11-06T16:08:26.383Z,75.77
2022-11-06T16:11:23.436Z,75.58
2022-11-06T16:14:21.002Z,75.64
2022-11-06T16:17:25.691Z,75.51
2022-11-06T16:20:22.797Z,75.18
2022-11-06T16:23:26.774Z,75.03
2022-11-06T16:26:36.926Z,74.59
2022-11-06T16:29:33.578Z,74.79
2022-11-06T16:32:33.295Z,75.04
2022-11-06T16:35:37.407Z,75.58
2022-11-06T16:38:44.619Z,74.61
2022-11-06T16:42:00.577Z,74.91
2022-11-06T16:45:18.099Z,74.42
2022-11-06T16:48:35.909Z,73.54
2022-11-06T16:51:32.776Z,74.54
2022-11-06T16:54:31.489Z,74.40
2022-11-06T16:57:36.987Z,73.96
2022-11-06T17:00:33.896Z,73.71
2022-11-06T17:03:46.204Z,73.44
2022-11-06T17:06:43.898Z,73.64
2022-11-06T17:09:40.893Z,73.17
2022-11-06T17:12:38.028Z,73.19
2022-11-06T17:15:34.876Z,73.07
2022-11-06T17:18:36.220Z,74.29
2022-11-06T17:21:33.749Z,73.59
2022-11-06T17:24:36.582Z,73.78
2022-11-06T17:27:34.910Z,73.87
2022-11-06T17:30:31.842Z,74.14
2022-11-06T17:33:29.904Z,74.04
2022-11-06T17:36:27.838Z,74.96
2022-11-06T17:39:25.818Z,75.81
2022-11-06T17:42:23.065Z,76.18
2022-11-06T17:45:20.098Z,77.85
2022-11-06T17:48:17.664Z,81.26
2022-11-06T17:51:33.132Z,80.86
2022-11-06T17:54:34.114Z,84.05
2022-11-06T17:57:30.742Z,85.95
2022-11-06T18:00:27.630Z,86.08
2022-11-06T18:03:24.706Z,88.16
2022-11-06T18:06:22.150Z,90.57
2022-11-06T18:09:19.368Z,90.29
2022-11-06T18:12:17.599Z,89.57
2022-11-06T18:15:14.987Z,91.29
2022-11-06T18:18:12.153Z,92.60
2022-11-06T18:21:09.822Z,94.89
2022-11-06T18:24:06.877Z,94.83
2022-11-06T18:27:03.792Z,95.99
2022-11-06T18:30:01.174Z,97.59
2022-11-06T18:32:58.526Z,98.54
2022-11-06T18:36:03.023Z,99.37
2022-11-06T18:38:59.740Z,100.00
2022-11-06T18:41:58.348Z,100.00
2022-11-06T18:44:56.148Z,100.00
2022-11-06T18:47:53.084Z,100.00
2022-11-06T18:50:50.324Z,100.00
2022-11-06T18:53:48.262Z,100.00
2022-11-06T18:56:45.964Z,100.00
2022-11-06T18:59:43.027Z,100.00
2022-11-06T19:02:40.133Z,100.00
2022-11-06T19:05:37.915Z,100.00
2022-11-06T19:08:35.537Z,100.00
2022-11-06T19:11:32.682Z,100.00
2022-11-06T19:14:30.262Z,100.00
2022-11-06T19:17:27.725Z,100.00
2022-11-06T19:20:25.386Z,100.00
2022-11-06T19:23:23.199Z,100.00
2022-11-06T19:26:35.026Z,100.00
2022-11-06T19:29:32.073Z,98.75
2022-11-06T19:32:29.249Z,99.92
2022-11-06T19:35:27.045Z,99.61
2022-11-06T19:38:23.909Z,99.75
2022-11-06T19:41:21.209Z,98.94
2022-11-06T19:44:18.770Z,98.89
2022-11-06T19:47:16.116Z,98.95
2022-11-06T19:50:12.748Z,98.38
2022-11-06T19:53:09.925Z,99.00
2022-11-06T19:56:08.324Z,98.11
2022-11-06T19:59:06.005Z,99.20
2022-11-06T20:02:03.341Z,97.99
2022-11-06T20:05:01.249Z,96.35
2022-11-06T20:07:58.917Z,94.19
2022-11-06T20:11:02.877Z,95.32
2022-11-06T20:13:59.811Z,95.44
2022-11-06T20:16:56.930Z,94.14
2022-11-06T20:19:53.885Z,93.11
2022-11-06T20:22:51.218Z,91.57
2022-11-06T20:25:48.105Z,92.07
2022-11-06T20:28:46.862Z,90.83
2022-11-06T20:31:44.095Z,89.47
2022-11-06T20:34:40.927Z,88.34
2022-11-06T20:37:38.243Z,88.66
2022-11-06T20:40:35.174Z,87.38
2022-11-06T20:43:31.900Z,86.78
2022-11-06T20:46:29.129Z,84.73
2022-11-06T20:49:25.904Z,84.82
2022-11-06T20:52:23.260Z,85.07
2022-11-06T20:55:20.082Z,84.12
2022-11-06T20:58:16.907Z,83.14
2022-11-06T21:01:19.799Z,83.98
2022-11-06T21:04:16.788Z,84.15
2022-11-06T21:07:13.849Z,83.53
2022-11-06T21:10:12.348Z,81.94
2022-11-06T21:13:09.816Z,82.30
2022-11-06T21:16:15.573Z,83.23
2022-11-06T21:19:12.984Z,83.08
2022-11-06T21:22:09.911Z,83.30
2022-11-06T21:25:07.258Z,82.32
2022-11-06T21:28:04.305Z,82.73
2022-11-06T21:31:01.339Z,82.81
2022-11-06T21:34:00.392Z,84.09
2022-11-06T21:37:02.303Z,84.55
2022-11-06T21:40:00.678Z,84.08
2022-11-06T21:42:58.115Z,85.15
2022-11-06T21:45:55.022Z,84.76
2022-11-06T21:48:52.518Z,86.52
2022-11-06T21:51:50.102Z,86.34
2022-11-06T21:55:05.505Z,88.12
2022-11-06T21:58:02.814Z,88.81
2022-11-06T22:01:04.276Z,89.91
2022-11-06T22:04:01.462Z,89.91
2022-11-06T22:06:58.928Z,92.08
2022-11-06T22:09:55.987Z,92.98
2022-11-06T22:12:53.131Z,93.75
2022-11-06T22:15:49.902Z,94.54
2022-11-06T22:18:46.973Z,94.31
2022-11-06T22:21:44.032Z,94.64
2022-11-06T22:24:41.057Z,93.13
2022-11-06T22:27:40.868Z,92.43
2022-11-06T22:30:38.238Z,92.88
2022-11-06T22:33:35.429Z,94.14
2022-11-06T22:36:32.863Z,94.63
2022-11-06T22:39:29.802Z,94.29
2022-11-06T22:42:27.129Z,94.08
2022-11-06T22:45:24.933Z,94.02
2022-11-06T22:48:21.999Z,93.72
2022-11-06T22:51:20.857Z,94.30
2022-11-06T22:54:18.144Z,94.78
2022-11-06T22:57:14.935Z,96.77
2022-11-06T23:00:13.041Z,96.73
2022-11-06T23:03:10.375Z,95.47
2022-11-06T23:06:08.836Z,95.51
2022-11-06T23:09:06.246Z,94.98
2022-11-06T23:12:02.777Z,94.47
2022-11-06T23:15:00.390Z,95.48
2022-11-06T23:17:57.186Z,94.54
2022-11-06T23:20:54.146Z,95.20
2022-11-06T23:23:51.022Z,94.56
2022-11-06T23:26:47.942Z,94.94
2022-11-06T23:29:44.986Z,96.00
2022-11-06T23:32:42.408Z,97.62
2022-11-06T23:35:39.099Z,97.49
2022-11-06T23:38:36.025Z,96.61
2022-11-06T23:41:46.239Z,97.31
2022-11-06T23:45:02.703Z,97.03
2022-11-06T23:48:04.499Z,96.69
2022-11-06T23:51:05.254Z,96.77
2022-11-06T23:54:02.052Z,95.04
2022-11-06T23:56:58.932Z,96.49
2022-11-06T23:59:56.157Z,97.25
